createdAt,value
2018-04-13T00:01:38.164Z,58.33
2018-04-13T00:04:05.370Z,52.07
2018-04-13T00:06:31.719Z,55.70
2018-04-13T00:08:58.039Z,59.53
2018-04-13T00:11:24.407Z,59.80
2018-04-13T00:13:50.783Z,61.10
2018-04-13T00:16:17.366Z,56.60
2018-04-13T00:18:43.686Z,63.93
2018-04-13T00:21:10.045Z,63.63
2018-04-13T00:23:36.787Z,63.70
2018-04-13T00:26:04.486Z,60.30
2018-04-13T00:28:30.798Z,64.30
2018-04-13T00:30:57.155Z,57.20
2018-04-13T00:33:23.455Z,51.20
2018-04-13T00:35:50.548Z,48.97
2018-04-13T00:38:16.870Z,47.20
2018-04-13T00:40:43.223Z,38.13
2018-04-13T00:43:10.305Z,43.40
2018-04-13T00:45:36.658Z,41.80
2018-04-13T00:48:03.010Z,43.87
2018-04-13T00:50:29.357Z,45.37
2018-04-13T00:55:56.594Z,42.63
2018-04-13T00:58:22.958Z,42.27
2018-04-13T01:00:49.262Z,44.00
2018-04-13T01:03:15.606Z,52.47
2018-04-13T01:05:41.924Z,49.10
2018-04-13T01:08:08.287Z,47.90
2018-04-13T01:10:36.118Z,49.07
2018-04-13T01:13:02.470Z,46.57
2018-04-13T01:15:28.823Z,47.50
2018-04-13T01:17:55.224Z,53.67
2018-04-13T01:20:22.285Z,43.37
2018-04-13T01:22:49.373Z,44.50
2018-04-13T01:25:15.706Z,42.10
2018-04-13T01:27:42.038Z,41.17
2018-04-13T01:30:08.404Z,36.93
2018-04-13T01:32:34.746Z,43.30
2018-04-13T01:35:01.063Z,41.73
2018-04-13T01:37:27.430Z,40.00
2018-04-13T01:39:53.802Z,35.80
2018-04-13T01:42:20.957Z,35.23
2018-04-13T01:44:47.281Z,32.57
2018-04-13T01:47:13.658Z,28.40
2018-04-13T01:49:40.751Z,27.97
2018-04-13T01:52:07.795Z,29.57
2018-04-13T01:54:34.874Z,27.27
2018-04-13T01:57:01.225Z,52.43
2018-04-13T01:59:27.582Z,60.10
2018-04-13T02:01:53.891Z,52.30
2018-04-13T02:04:20.242Z,40.77
2018-04-13T02:06:46.554Z,37.20
2018-04-13T02:09:13.647Z,47.23
2018-04-13T02:11:39.974Z,44.00
2018-04-13T02:14:06.337Z,42.90
2018-04-13T02:16:32.662Z,49.07
2018-04-13T02:18:59.745Z,57.83
2018-04-13T02:21:26.071Z,47.83
2018-04-13T02:23:52.419Z,50.67
2018-04-13T02:26:18.765Z,39.27
2018-04-13T02:28:45.141Z,35.97
2018-04-13T02:31:12.241Z,36.50
2018-04-13T02:33:38.581Z,45.33
2018-04-13T02:36:05.675Z,35.70
2018-04-13T02:38:32.027Z,32.20
2018-04-13T02:40:58.360Z,41.20
2018-04-13T02:43:24.712Z,63.77
2018-04-13T02:45:51.125Z,46.67
2018-04-13T02:48:18.181Z,43.40
2018-04-13T02:50:44.541Z,42.83
2018-04-13T02:53:10.875Z,47.07
2018-04-13T02:55:37.261Z,49.87
2018-04-13T02:58:04.109Z,65.70
2018-04-13T03:00:30.470Z,70.37
2018-04-13T03:02:56.766Z,66.33
2018-04-13T03:05:23.096Z,71.10
2018-04-13T03:07:50.141Z,56.17
2018-04-13T03:10:16.562Z,48.47
2018-04-13T03:12:42.898Z,54.00
2018-04-13T03:15:09.966Z,59.67
2018-04-13T03:17:36.300Z,51.20
2018-04-13T03:20:02.786Z,50.93
2018-04-13T03:22:29.097Z,43.43
2018-04-13T03:24:55.431Z,51.43
2018-04-13T03:27:21.790Z,45.70
2018-04-13T03:29:48.885Z,45.33
2018-04-13T03:32:15.932Z,41.40
2018-04-13T03:34:42.316Z,41.87
2018-04-13T03:37:08.750Z,42.90
2018-04-13T03:39:35.782Z,39.67
2018-04-13T03:42:02.953Z,39.50
2018-04-13T03:44:29.274Z,39.30
2018-04-13T03:46:55.641Z,40.70
2018-04-13T03:49:21.981Z,40.53
2018-04-13T03:51:49.199Z,39.63
2018-04-13T03:54:15.593Z,38.17
2018-04-13T03:56:41.995Z,37.30
2018-04-13T03:59:08.302Z,34.70
2018-04-13T04:01:34.635Z,39.87
2018-04-13T04:04:00.973Z,42.13
2018-04-13T04:06:27.326Z,49.80
2018-04-13T04:08:53.717Z,65.20
2018-04-13T04:11:20.079Z,57.03
2018-04-13T04:13:46.512Z,63.00
2018-04-13T04:16:12.901Z,67.00
2018-04-13T04:18:39.309Z,69.57
2018-04-13T04:21:18.134Z,58.33
2018-04-13T04:23:56.784Z,60.23
2018-04-13T04:26:35.581Z,51.97
2018-04-13T04:29:01.947Z,45.60
2018-04-13T04:31:28.334Z,50.37
2018-04-13T04:33:54.745Z,43.87
2018-04-13T04:36:21.865Z,58.83
2018-04-13T04:38:48.198Z,59.33
2018-04-13T04:41:14.587Z,71.37
2018-04-13T04:43:40.967Z,61.10
2018-04-13T04:46:07.315Z,56.70
2018-04-13T04:48:33.706Z,62.60
2018-04-13T04:51:00.853Z,52.60
2018-04-13T04:53:27.229Z,61.37
2018-04-13T04:55:53.566Z,59.30
2018-04-13T04:58:20.689Z,60.37
2018-04-13T05:00:47.038Z,55.40
2018-04-13T05:03:13.402Z,67.80
2018-04-13T05:05:39.794Z,70.93
2018-04-13T05:08:06.183Z,65.47
2018-04-13T05:10:32.513Z,46.97
2018-04-13T05:12:58.878Z,53.27
2018-04-13T05:15:25.385Z,45.10
2018-04-13T05:17:52.622Z,65.47
2018-04-13T05:20:19.007Z,56.80
2018-04-13T05:22:45.426Z,53.97
2018-04-13T05:25:11.802Z,50.97
2018-04-13T05:27:38.218Z,49.50
2018-04-13T05:30:05.406Z,46.77
2018-04-13T05:32:31.786Z,41.87
2018-04-13T05:34:58.287Z,42.30
2018-04-13T05:37:25.394Z,45.40
2018-04-13T05:39:51.736Z,42.67
2018-04-13T05:42:18.829Z,43.10
2018-04-13T05:44:45.274Z,40.63
2018-04-13T05:47:12.392Z,39.50
2018-04-13T05:49:38.734Z,42.57
2018-04-13T05:52:05.291Z,41.63
2018-04-13T05:54:31.711Z,45.97
2018-04-13T05:56:58.798Z,47.20
2018-04-13T05:59:25.947Z,43.87
2018-04-13T06:01:52.388Z,45.00
2018-04-13T06:04:18.844Z,42.67
2018-04-13T06:06:45.971Z,48.97
2018-04-13T06:09:13.097Z,52.43
2018-04-13T06:11:39.453Z,49.77
2018-04-13T06:14:05.834Z,51.50
2018-04-13T06:16:33.007Z,51.27
2018-04-13T06:18:59.350Z,46.70
2018-04-13T06:21:25.778Z,48.80
2018-04-13T06:23:52.167Z,47.70
2018-04-13T06:26:18.531Z,50.20
2018-04-13T06:28:45.611Z,49.40
2018-04-13T06:31:11.970Z,50.93
2018-04-13T06:33:38.314Z,50.43
2018-04-13T06:36:05.457Z,50.40
2018-04-13T06:38:31.834Z,50.43
2018-04-13T06:40:58.266Z,50.83
2018-04-13T06:43:25.426Z,46.07
2018-04-13T06:45:52.605Z,48.70
2018-04-13T06:48:19.285Z,40.87
2018-04-13T06:50:46.440Z,43.10
2018-04-13T06:53:14.258Z,44.97
2018-04-13T06:55:40.631Z,45.00
2018-04-13T06:58:07.029Z,45.77
2018-04-13T07:00:33.510Z,46.80
2018-04-13T07:02:59.913Z,43.93
2018-04-13T07:05:26.361Z,43.43
2018-04-13T07:07:52.731Z,40.90
2018-04-13T07:10:19.102Z,42.73
2018-04-13T07:12:45.420Z,39.77
2018-04-13T07:15:12.618Z,40.30
2018-04-13T07:17:39.030Z,39.70
2018-04-13T07:20:05.446Z,39.87
2018-04-13T07:22:33.347Z,38.47
2018-04-13T07:25:00.513Z,35.87
2018-04-13T07:27:26.887Z,39.40
2018-04-13T07:29:53.360Z,36.10
2018-04-13T07:32:21.934Z,36.13
2018-04-13T07:34:48.334Z,35.83
2018-04-13T07:37:15.963Z,38.83
2018-04-13T07:39:41.843Z,36.53
2018-04-13T07:42:08.226Z,33.53
2018-04-13T07:44:36.003Z,34.20
2018-04-13T07:47:02.472Z,33.87
2018-04-13T07:49:28.848Z,35.30
2018-04-13T07:51:55.502Z,37.07
2018-04-13T07:54:21.616Z,31.50
2018-04-13T07:56:47.969Z,31.90
2018-04-13T07:59:14.315Z,31.20
2018-04-13T08:01:40.741Z,32.90
2018-04-13T08:04:07.257Z,30.50
2018-04-13T08:06:33.645Z,30.53
2018-04-13T08:09:00.008Z,30.93
2018-04-13T08:11:27.134Z,28.17
2018-04-13T08:13:53.626Z,27.20
2018-04-13T08:16:20.025Z,31.93
2018-04-13T08:18:46.465Z,30.43
2018-04-13T08:21:12.867Z,29.63
2018-04-13T08:23:39.246Z,30.37
2018-04-13T08:26:05.583Z,28.10
2018-04-13T08:28:31.978Z,31.10
2018-04-13T08:30:59.118Z,28.60
2018-04-13T08:33:25.572Z,29.73
2018-04-13T08:35:51.963Z,27.87
2018-04-13T08:38:18.421Z,26.80
2018-04-13T08:40:44.756Z,25.47
2018-04-13T08:43:11.124Z,25.17
2018-04-13T08:45:37.513Z,25.20
2018-04-13T08:48:04.561Z,24.90
2018-04-13T08:50:30.906Z,24.67
2018-04-13T08:52:57.295Z,24.33
2018-04-13T08:55:24.420Z,27.37
2018-04-13T08:57:51.276Z,25.90
2018-04-13T09:00:17.799Z,26.93
2018-04-13T09:02:44.138Z,28.37
2018-04-13T09:05:11.323Z,24.70
2018-04-13T09:07:37.751Z,25.60
2018-04-13T09:10:06.266Z,25.83
2018-04-13T09:12:32.671Z,28.13
2018-04-13T09:14:59.061Z,28.47
2018-04-13T09:17:26.908Z,17.27
2018-04-13T09:19:53.253Z,12.37
2018-04-13T09:22:19.607Z,14.53
2018-04-13T09:24:46.006Z,12.03
2018-04-13T09:27:12.395Z,11.67
2018-04-13T09:29:38.910Z,12.43
2018-04-13T09:32:05.371Z,12.20
2018-04-13T09:34:31.818Z,11.93
2018-04-13T09:36:58.172Z,11.73
2018-04-13T09:39:24.530Z,12.13
2018-04-13T09:41:50.860Z,14.00
2018-04-13T09:44:17.295Z,13.40
2018-04-13T09:46:44.446Z,17.40
2018-04-13T09:49:10.814Z,15.60
2018-04-13T09:51:37.176Z,15.00
2018-04-13T09:54:04.092Z,11.87
2018-04-13T09:56:32.114Z,12.43
2018-04-13T09:58:58.442Z,9.83
2018-04-13T10:01:24.865Z,11.07
2018-04-13T10:03:57.331Z,11.13
2018-04-13T10:06:23.702Z,9.80
2018-04-13T10:08:50.163Z,8.17
2018-04-13T10:11:16.596Z,6.97
2018-04-13T10:13:44.887Z,8.10
2018-04-13T10:16:11.242Z,7.23
2018-04-13T10:18:39.052Z,8.23
2018-04-13T10:21:05.477Z,7.17
2018-04-13T10:23:32.558Z,7.07
2018-04-13T10:25:58.967Z,6.33
2018-04-13T10:28:25.366Z,7.20
2018-04-13T10:30:52.500Z,6.07
2018-04-13T10:33:19.881Z,6.10
2018-04-13T10:35:46.298Z,4.73
2018-04-13T10:38:12.633Z,5.80
2018-04-13T10:40:39.047Z,6.90
2018-04-13T10:43:05.461Z,5.97
2018-04-13T10:45:31.810Z,6.00
2018-04-13T10:47:58.168Z,6.43
2018-04-13T10:50:24.510Z,7.03
2018-04-13T10:52:50.870Z,5.93
2018-04-13T10:55:18.107Z,5.50
2018-04-13T10:57:44.496Z,5.87
2018-04-13T11:00:10.884Z,7.10
2018-04-13T11:02:37.321Z,8.07
2018-04-13T11:05:03.777Z,6.47
2018-04-13T11:07:30.146Z,6.80
2018-04-13T11:09:56.475Z,7.23
2018-04-13T11:12:22.847Z,5.83
2018-04-13T11:14:49.208Z,5.97
2018-04-13T11:17:15.574Z,6.63
2018-04-13T11:19:41.930Z,6.73
2018-04-13T11:22:09.047Z,7.27
2018-04-13T11:24:35.466Z,6.33
2018-04-13T11:27:01.913Z,7.10
2018-04-13T11:29:28.694Z,6.40
2018-04-13T11:31:55.074Z,5.60
2018-04-13T11:34:21.462Z,6.33
2018-04-13T11:36:48.580Z,6.73
2018-04-13T11:39:21.883Z,6.40
2018-04-13T11:41:48.308Z,5.73
2018-04-13T11:44:14.963Z,6.27
2018-04-13T11:46:41.326Z,5.97
2018-04-13T11:49:07.678Z,5.20
2018-04-13T11:51:34.052Z,4.80
2018-04-13T11:54:02.311Z,5.00
2018-04-13T11:56:28.774Z,4.47
2018-04-13T11:58:55.159Z,4.23
2018-04-13T12:01:21.557Z,3.20
2018-04-13T12:03:47.961Z,3.10
2018-04-13T12:06:14.361Z,3.50
2018-04-13T12:08:40.763Z,3.50
2018-04-13T12:11:07.090Z,3.23
2018-04-13T12:13:33.571Z,3.70
2018-04-13T12:16:00.580Z,4.00
2018-04-13T12:18:27.004Z,4.20
2018-04-13T12:20:53.335Z,4.07
2018-04-13T12:23:19.733Z,4.30
2018-04-13T12:25:46.145Z,4.73
2018-04-13T12:28:12.583Z,4.10
2018-04-13T12:30:38.947Z,4.50
2018-04-13T12:33:05.347Z,7.23
2018-04-13T12:35:31.749Z,6.20
2018-04-13T12:37:58.874Z,6.00
2018-04-13T12:40:25.269Z,6.57
2018-04-13T12:42:52.570Z,4.57
2018-04-13T12:45:18.995Z,5.90
2018-04-13T12:47:45.455Z,7.57
2018-04-13T12:50:13.318Z,7.63
2018-04-13T12:52:39.705Z,9.77
2018-04-13T12:55:06.341Z,9.30
2018-04-13T12:57:32.466Z,9.80
2018-04-13T12:59:59.615Z,10.83
2018-04-13T13:02:26.918Z,11.00
2018-04-13T13:04:53.326Z,11.03
2018-04-13T13:07:20.429Z,10.90
2018-04-13T13:09:46.806Z,11.57
2018-04-13T13:12:13.172Z,10.93
2018-04-13T13:14:40.314Z,8.77
2018-04-13T13:17:06.650Z,9.87
2018-04-13T13:19:32.991Z,10.07
2018-04-13T13:21:59.390Z,8.17
2018-04-13T13:24:25.739Z,9.50
2018-04-13T13:26:52.831Z,8.83
2018-04-13T13:29:19.239Z,10.07
2018-04-13T13:31:46.423Z,9.73
2018-04-13T13:34:13.606Z,10.23
2018-04-13T13:36:40.723Z,9.67
2018-04-13T13:39:09.890Z,10.47
2018-04-13T13:41:37.002Z,9.97
2018-04-13T13:44:03.401Z,10.67
2018-04-13T13:46:29.845Z,9.97
2018-04-13T13:48:57.037Z,10.07
2018-04-13T13:51:23.391Z,8.90
2018-04-13T13:53:49.770Z,8.53
2018-04-13T13:56:16.906Z,9.60
2018-04-13T13:58:43.266Z,11.40
2018-04-13T14:01:09.658Z,10.70
2018-04-13T14:03:36.045Z,9.77
2018-04-13T14:06:02.521Z,12.77
2018-04-13T14:08:28.958Z,11.90
2018-04-13T14:10:55.649Z,13.47
2018-04-13T14:13:22.050Z,12.43
2018-04-13T14:15:48.422Z,11.17
2018-04-13T14:18:14.792Z,14.60
2018-04-13T14:20:41.156Z,13.20
2018-04-13T14:23:07.599Z,13.37
2018-04-13T14:25:33.969Z,14.83
2018-04-13T14:28:00.376Z,13.13
2018-04-13T14:30:26.832Z,15.20
2018-04-13T14:32:53.185Z,15.10
2018-04-13T14:35:19.596Z,16.17
2018-04-13T14:37:46.700Z,16.53
2018-04-13T14:40:13.045Z,14.90
2018-04-13T14:42:39.458Z,15.80
2018-04-13T14:45:05.821Z,16.83
2018-04-13T14:47:32.234Z,17.57
2018-04-13T14:49:58.653Z,15.37
2018-04-13T14:52:25.060Z,16.80
2018-04-13T14:54:51.488Z,14.30
2018-04-13T14:57:18.639Z,14.90
2018-04-13T14:59:45.023Z,15.10
2018-04-13T15:02:11.447Z,15.00
2018-04-13T15:04:37.963Z,15.90
2018-04-13T15:07:04.337Z,16.43
2018-04-13T15:09:30.967Z,15.33
2018-04-13T15:11:57.318Z,15.37
2018-04-13T15:14:23.737Z,15.43
2018-04-13T15:16:50.862Z,15.10
2018-04-13T15:19:17.455Z,13.77
2018-04-13T15:21:43.831Z,14.17
2018-04-13T15:24:11.078Z,15.70
2018-04-13T15:26:37.417Z,16.60
2018-04-13T15:29:03.800Z,15.50
2018-04-13T15:31:30.271Z,16.60
2018-04-13T15:33:56.659Z,16.73
2018-04-13T15:36:24.446Z,15.30
2018-04-13T15:38:50.802Z,15.03
2018-04-13T15:41:17.170Z,15.40
2018-04-13T15:43:44.340Z,15.90
2018-04-13T15:46:10.862Z,15.57
2018-04-13T15:48:37.514Z,15.37
2018-04-13T16:34:43.880Z,18.33
2018-04-13T16:37:10.231Z,15.73
2018-04-13T16:39:37.346Z,18.60
2018-04-13T16:42:03.750Z,19.03
2018-04-13T16:44:30.160Z,18.73
2018-04-13T16:46:56.565Z,19.70
2018-04-13T16:49:23.724Z,16.97
2018-04-13T16:51:50.854Z,20.27
2018-04-13T16:54:17.212Z,17.20
2018-04-13T16:56:44.438Z,17.40
2018-04-13T16:59:11.556Z,17.13
2018-04-13T17:01:38.737Z,19.90
2018-04-13T17:04:05.895Z,17.10
2018-04-13T17:06:32.311Z,19.53
2018-04-13T17:08:58.712Z,20.13
2018-04-13T17:11:25.847Z,19.50
2018-04-13T17:13:52.194Z,18.97
2018-04-13T17:16:18.667Z,19.23
2018-04-13T17:18:45.039Z,19.37
2018-04-13T17:21:12.217Z,19.90
2018-04-13T17:23:38.571Z,18.43
2018-04-13T17:26:05.133Z,17.50
2018-04-13T17:28:31.513Z,17.60
2018-04-13T17:30:57.887Z,20.27
2018-04-13T17:33:24.250Z,18.40
2018-04-13T17:35:50.664Z,18.97
2018-04-13T17:38:17.825Z,20.07
2018-04-13T17:40:44.222Z,18.70
2018-04-13T17:43:10.696Z,19.67
2018-04-13T17:45:37.064Z,20.87
2018-04-13T17:48:04.917Z,19.77
2018-04-13T17:50:31.275Z,21.73
2018-04-13T17:52:57.706Z,21.63
2018-04-13T17:55:24.109Z,23.90
2018-04-13T17:57:51.246Z,27.43
2018-04-13T18:00:17.702Z,29.80
2018-04-13T18:02:44.201Z,26.30
2018-04-13T18:05:10.569Z,23.13
2018-04-13T18:07:36.938Z,23.17
2018-04-13T18:10:03.968Z,21.40
2018-04-13T18:12:30.467Z,23.03
2018-04-13T18:14:56.881Z,21.53
2018-04-13T18:17:23.286Z,23.10
2018-04-13T18:19:49.646Z,23.30
2018-04-13T18:22:15.997Z,21.73
2018-04-13T18:24:42.404Z,24.90
2018-04-13T18:27:09.530Z,23.50
2018-04-13T18:29:36.722Z,21.73
2018-04-13T18:32:03.203Z,20.00
2018-04-13T18:34:29.642Z,22.00
2018-04-13T18:36:56.073Z,25.60
2018-04-13T18:39:23.272Z,26.70
2018-04-13T18:41:50.378Z,25.97
2018-04-13T18:44:16.787Z,27.67
2018-04-13T18:46:43.157Z,24.63
2018-04-13T18:49:09.505Z,22.50
2018-04-13T18:51:35.860Z,25.00
2018-04-13T18:54:02.243Z,22.63
2018-04-13T18:56:28.575Z,24.83
2018-04-13T18:58:54.961Z,22.60
2018-04-13T19:01:21.269Z,25.47
2018-04-13T19:03:47.774Z,22.97
2018-04-13T19:06:14.102Z,20.33
2018-04-13T19:08:40.441Z,22.37
2018-04-13T19:11:07.494Z,25.57
2018-04-13T19:13:34.566Z,21.97
2018-04-13T19:16:00.910Z,22.57
2018-04-13T19:18:27.211Z,24.67
2018-04-13T19:20:53.522Z,24.50
2018-04-13T19:23:19.827Z,29.00
2018-04-13T19:25:46.154Z,28.43
2018-04-13T19:28:13.299Z,22.80
2018-04-13T19:30:39.696Z,25.10
2018-04-13T19:33:06.013Z,25.67
2018-04-13T19:35:32.411Z,23.47
2018-04-13T19:37:58.753Z,23.67
2018-04-13T19:40:25.078Z,24.23
2018-04-13T19:42:51.381Z,23.57
2018-04-13T19:45:18.620Z,24.57
2018-04-13T19:47:44.985Z,22.70
2018-04-13T19:50:11.329Z,25.03
2018-04-13T19:52:38.420Z,27.30
2018-04-13T19:55:04.770Z,27.50
2018-04-13T19:57:31.118Z,28.00
2018-04-13T19:59:57.492Z,29.10
2018-04-13T20:02:23.873Z,25.67
2018-04-13T20:04:50.218Z,28.30
2018-04-13T20:07:16.557Z,27.30
2018-04-13T20:09:42.916Z,23.03
2018-04-13T20:12:09.286Z,27.07
2018-04-13T20:14:35.595Z,29.27
2018-04-13T20:17:01.979Z,24.17
2018-04-13T20:19:28.345Z,27.30
2018-04-13T20:21:54.803Z,26.97
2018-04-13T20:24:21.264Z,29.47
2018-04-13T20:26:47.668Z,31.33
2018-04-13T20:29:14.033Z,27.83
2018-04-13T20:31:41.173Z,25.90
2018-04-13T20:34:07.506Z,28.60
2018-04-13T20:36:33.957Z,28.80
2018-04-13T20:39:00.261Z,28.73
2018-04-13T20:41:26.598Z,29.40
2018-04-13T20:43:52.911Z,26.90
2018-04-13T20:46:20.038Z,29.20
2018-04-13T20:48:46.356Z,31.10
2018-04-13T20:51:12.736Z,29.97
2018-04-13T20:53:39.826Z,32.60
2018-04-13T20:56:06.961Z,29.77
2018-04-13T20:58:33.270Z,31.20
2018-04-13T21:00:59.630Z,32.07
2018-04-13T21:03:25.938Z,30.93
2018-04-13T21:05:52.245Z,33.10
2018-04-13T21:08:18.583Z,31.60
2018-04-13T21:10:44.898Z,31.33
2018-04-13T21:13:11.293Z,30.53
2018-04-13T21:15:37.606Z,36.87
2018-04-13T21:18:04.025Z,31.53
2018-04-13T21:20:30.463Z,33.10
2018-04-13T21:22:57.018Z,30.30
2018-04-13T21:25:23.353Z,30.43
2018-04-13T21:27:50.468Z,34.57
2018-04-13T21:30:17.566Z,33.90
2018-04-13T21:32:43.865Z,33.60
2018-04-13T21:35:10.187Z,34.80
2018-04-13T21:37:36.527Z,37.50
2018-04-13T21:40:03.062Z,34.60
2018-04-13T21:42:29.435Z,33.37
2018-04-13T21:44:55.760Z,34.47
2018-04-13T21:47:22.191Z,31.63
2018-04-13T21:49:48.486Z,31.50
2018-04-13T21:52:14.858Z,28.80
2018-04-13T21:54:41.285Z,35.80
2018-04-13T21:57:07.870Z,36.53
2018-04-13T21:59:34.302Z,35.20
2018-04-13T22:02:00.801Z,32.80
2018-04-13T22:04:27.134Z,37.30
2018-04-13T22:06:54.192Z,34.90
2018-04-13T22:09:21.249Z,34.47
2018-04-13T22:11:48.326Z,34.23
2018-04-13T22:14:26.843Z,36.93
2018-04-13T22:16:54.031Z,37.80
2018-04-13T22:19:20.339Z,38.20
2018-04-13T22:21:47.399Z,36.57
2018-04-13T22:24:14.474Z,35.37
2018-04-13T22:26:40.796Z,35.00
2018-04-13T22:29:07.880Z,36.00
2018-04-13T22:31:34.913Z,37.53
2018-04-13T22:34:01.978Z,38.40
2018-04-13T22:36:28.345Z,39.10
2018-04-13T22:38:54.691Z,38.67
2018-04-13T22:41:21.055Z,39.40
2018-04-13T22:43:47.382Z,39.70
2018-04-13T22:46:13.734Z,35.27
2018-04-13T22:48:40.067Z,32.07
2018-04-13T22:51:06.405Z,34.37
2018-04-13T22:53:32.729Z,39.57
2018-04-13T22:55:59.809Z,39.80
2018-04-13T22:58:26.179Z,36.40
2018-04-13T23:00:52.497Z,36.87
2018-04-13T23:03:18.835Z,38.40
2018-04-13T23:05:45.163Z,39.23
2018-04-13T23:08:12.218Z,38.10
2018-04-13T23:10:38.575Z,37.70
2018-04-13T23:13:04.930Z,39.67
2018-04-13T23:15:31.480Z,38.30
2018-04-13T23:17:57.831Z,38.43
2018-04-13T23:20:24.182Z,36.33
2018-04-13T23:22:50.490Z,38.27
2018-04-13T23:25:16.825Z,32.20
2018-04-13T23:27:43.151Z,36.40
2018-04-13T23:30:10.213Z,32.97
2018-04-13T23:32:37.313Z,31.07
2018-04-13T23:35:03.711Z,33.37
2018-04-13T23:37:30.061Z,35.37
2018-04-13T23:39:57.122Z,34.30
2018-04-13T23:42:23.493Z,36.00
2018-04-13T23:44:49.818Z,36.30
2018-04-13T23:47:16.154Z,38.20
2018-04-13T23:49:42.469Z,33.20
2018-04-13T23:52:08.806Z,37.87
2018-04-13T23:54:35.138Z,37.27
2018-04-13T23:57:01.492Z,39.07
2018-04-13T23:59:27.854Z,40.57
